sensor_id;sensor_type;location;lat;lon;timestamp;pressure;altitude;pressure_sealevel;temperature;humidity
18201;BME280;9226;47.858;9.594;2023-02-10T00:01:28;96922.63;;;-0.94;66.59
18201;BME280;9226;47.858;9.594;2023-02-10T00:03:54;96920.97;;;-0.98;66.72
18201;BME280;9226;47.858;9.594;2023-02-10T00:06:21;96919.25;;;-1.02;66.84
18201;BME280;9226;47.858;9.594;2023-02-10T00:08:55;96927.09;;;-1.03;66.39
18201;BME280;9226;47.858;9.594;2023-02-10T00:11:21;96935.78;;;-1.04;66.57
18201;BME280;9226;47.858;9.594;2023-02-10T00:14:06;96940.13;;;-1.05;66.34
18201;BME280;9226;47.858;9.594;2023-02-10T00:16:32;96934.13;;;-1.10;66.53
18201;BME280;9226;47.858;9.594;2023-02-10T00:18:57;96935.91;;;-1.15;66.00
18201;BME280;9226;47.858;9.594;2023-02-10T00:21:22;96933.38;;;-1.21;65.82
18201;BME280;9226;47.858;9.594;2023-02-10T00:23:48;96935.19;;;-1.26;66.11
18201;BME280;9226;47.858;9.594;2023-02-10T00:26:13;96936.97;;;-1.35;66.95
18201;BME280;9226;47.858;9.594;2023-02-10T00:28:39;96936.91;;;-1.29;67.01
18201;BME280;9226;47.858;9.594;2023-02-10T00:31:06;96930.91;;;-1.34;66.84
18201;BME280;9226;47.858;9.594;2023-02-10T00:33:32;96938.75;;;-1.37;66.97
18201;BME280;9226;47.858;9.594;2023-02-10T00:35:57;96936.13;;;-1.37;66.79
18201;BME280;9226;47.858;9.594;2023-02-10T00:38:23;96936.16;;;-1.38;66.39
18201;BME280;9226;47.858;9.594;2023-02-10T00:40:48;96941.44;;;-1.48;67.55
18201;BME280;9226;47.858;9.594;2023-02-10T00:43:15;96942.38;;;-1.52;66.84
18201;BME280;9226;47.858;9.594;2023-02-10T00:45:40;96945.00;;;-1.56;66.43
18201;BME280;9226;47.858;9.594;2023-02-10T00:48:05;96942.44;;;-1.59;66.60
18201;BME280;9226;47.858;9.594;2023-02-10T00:50:31;96948.50;;;-1.57;68.02
18201;BME280;9226;47.858;9.594;2023-02-10T00:52:56;96949.38;;;-1.61;67.74
18201;BME280;9226;47.858;9.594;2023-02-10T00:55:21;96952.00;;;-1.63;67.14
18201;BME280;9226;47.858;9.594;2023-02-10T00:57:47;96952.91;;;-1.66;67.39
18201;BME280;9226;47.858;9.594;2023-02-10T01:00:13;96950.38;;;-1.73;67.46
18201;BME280;9226;47.858;9.594;2023-02-10T01:02:38;96950.38;;;-1.76;67.70
18201;BME280;9226;47.858;9.594;2023-02-10T01:05:04;96949.56;;;-1.80;68.98
18201;BME280;9226;47.858;9.594;2023-02-10T01:07:29;96951.25;;;-1.76;68.07
18201;BME280;9226;47.858;9.594;2023-02-10T01:09:55;96953.88;;;-1.79;68.93
18201;BME280;9226;47.858;9.594;2023-02-10T01:12:20;96954.75;;;-1.77;68.02
18201;BME280;9226;47.858;9.594;2023-02-10T01:14:46;96953.00;;;-1.76;68.58
18201;BME280;9226;47.858;9.594;2023-02-10T01:17:11;96956.47;;;-1.79;68.46
18201;BME280;9226;47.858;9.594;2023-02-10T01:19:36;96951.25;;;-1.79;68.57
18201;BME280;9226;47.858;9.594;2023-02-10T01:22:02;96962.56;;;-1.78;68.40
18201;BME280;9226;47.858;9.594;2023-02-10T01:24:27;96965.16;;;-1.80;67.78
18201;BME280;9226;47.858;9.594;2023-02-10T01:26:52;96959.97;;;-1.80;67.58
18201;BME280;9226;47.858;9.594;2023-02-10T01:29:18;96971.25;;;-1.84;67.59
18201;BME280;9226;47.858;9.594;2023-02-10T01:31:43;96973.06;;;-1.91;68.09
18201;BME280;9226;47.858;9.594;2023-02-10T01:34:08;96963.56;;;-2.00;68.00
18201;BME280;9226;47.858;9.594;2023-02-10T01:36:35;96962.72;;;-2.02;67.90
18201;BME280;9226;47.858;9.594;2023-02-10T01:39:00;96965.34;;;-2.05;67.80
18201;BME280;9226;47.858;9.594;2023-02-10T01:41:26;96973.19;;;-2.12;68.82
18201;BME280;9226;47.858;9.594;2023-02-10T01:45:02;96969.78;;;-2.17;68.54
18201;BME280;9226;47.858;9.594;2023-02-10T01:46:52;96965.44;;;-2.20;68.80
18201;BME280;9226;47.858;9.594;2023-02-10T01:49:23;96975.84;;;-2.23;68.66
18201;BME280;9226;47.858;9.594;2023-02-10T01:51:55;96974.16;;;-2.24;68.31
18201;BME280;9226;47.858;9.594;2023-02-10T01:54:26;96982.78;;;-2.22;68.39
18201;BME280;9226;47.858;9.594;2023-02-10T01:56:53;96986.25;;;-2.22;68.28
18201;BME280;9226;47.858;9.594;2023-02-10T01:59:20;96985.38;;;-2.21;67.95
18201;BME280;9226;47.858;9.594;2023-02-10T02:01:49;96979.31;;;-2.20;67.69
18201;BME280;9226;47.858;9.594;2023-02-10T02:04:14;96986.25;;;-2.20;68.12
18201;BME280;9226;47.858;9.594;2023-02-10T02:06:40;96983.63;;;-2.20;68.32
18201;BME280;9226;47.858;9.594;2023-02-10T02:09:08;96980.19;;;-2.21;68.52
18201;BME280;9226;47.858;9.594;2023-02-10T02:11:59;96988.88;;;-2.25;70.64
18201;BME280;9226;47.858;9.594;2023-02-10T02:14:56;96980.19;;;-2.24;70.65
18201;BME280;9226;47.858;9.594;2023-02-10T02:17:41;96985.44;;;-2.33;74.98
18201;BME280;9226;47.858;9.594;2023-02-10T02:36:39;96976.72;;;-2.21;73.55
18201;BME280;9226;47.858;9.594;2023-02-10T02:39:06;96974.09;;;-2.15;71.52
18201;BME280;9226;47.858;9.594;2023-02-10T02:41:33;96982.84;;;-2.31;74.78
18201;BME280;9226;47.858;9.594;2023-02-10T02:44:01;96979.38;;;-2.30;73.93
18201;BME280;9226;47.858;9.594;2023-02-10T02:46:44;96972.50;;;-2.41;74.87
18201;BME280;9226;47.858;9.594;2023-02-10T02:51:54;96975.03;;;-2.28;72.51
18201;BME280;9226;47.858;9.594;2023-02-10T02:54:26;96983.69;;;-2.29;72.09
18201;BME280;9226;47.858;9.594;2023-02-10T02:57:01;96988.03;;;-2.31;71.74
18201;BME280;9226;47.858;9.594;2023-02-10T03:02:27;96990.66;;;-2.34;71.20
18201;BME280;9226;47.858;9.594;2023-02-10T03:04:54;96982.84;;;-2.31;70.47
18201;BME280;9226;47.858;9.594;2023-02-10T03:07:20;96982.84;;;-2.34;70.65
18201;BME280;9226;47.858;9.594;2023-02-10T03:09:45;96985.50;;;-2.42;73.00
18201;BME280;9226;47.858;9.594;2023-02-10T03:12:11;96976.84;;;-2.41;72.46
18201;BME280;9226;47.858;9.594;2023-02-10T03:14:38;96973.41;;;-2.43;72.95
18201;BME280;9226;47.858;9.594;2023-02-10T03:17:03;96974.22;;;-2.37;71.99
18201;BME280;9226;47.858;9.594;2023-02-10T03:19:29;96975.97;;;-2.35;71.83
18201;BME280;9226;47.858;9.594;2023-02-10T03:21:54;96982.00;;;-2.32;71.42
18201;BME280;9226;47.858;9.594;2023-02-10T03:24:19;96985.44;;;-2.33;71.60
18201;BME280;9226;47.858;9.594;2023-02-10T03:26:45;96981.09;;;-2.29;71.00
18201;BME280;9226;47.858;9.594;2023-02-10T03:29:12;96971.59;;;-2.30;70.79
18201;BME280;9226;47.858;9.594;2023-02-10T03:31:38;96979.38;;;-2.29;70.57
18201;BME280;9226;47.858;9.594;2023-02-10T03:34:03;96979.38;;;-2.30;71.00
18201;BME280;9226;47.858;9.594;2023-02-10T03:36:29;96980.25;;;-2.31;70.89
18201;BME280;9226;47.858;9.594;2023-02-10T03:38:54;96982.84;;;-2.31;70.76
18201;BME280;9226;47.858;9.594;2023-02-10T03:41:20;96986.34;;;-2.32;71.36
18201;BME280;9226;47.858;9.594;2023-02-10T03:43:45;96994.97;;;-2.30;71.31
18201;BME280;9226;47.858;9.594;2023-02-10T03:46:11;96996.69;;;-2.29;71.43
18201;BME280;9226;47.858;9.594;2023-02-10T03:48:36;96993.22;;;-2.25;70.94
18201;BME280;9226;47.858;9.594;2023-02-10T03:51:04;97003.59;;;-2.24;70.63
18201;BME280;9226;47.858;9.594;2023-02-10T03:53:31;97001.88;;;-2.25;70.79
18201;BME280;9226;47.858;9.594;2023-02-10T03:55:57;97011.41;;;-2.24;70.38
18201;BME280;9226;47.858;9.594;2023-02-10T03:58:22;97014.88;;;-2.25;70.42
18201;BME280;9226;47.858;9.594;2023-02-10T04:00:48;97015.75;;;-2.24;69.93
18201;BME280;9226;47.858;9.594;2023-02-10T04:03:14;97012.25;;;-2.25;69.97
18201;BME280;9226;47.858;9.594;2023-02-10T04:05:39;97017.47;;;-2.26;70.36
18201;BME280;9226;47.858;9.594;2023-02-10T04:08:05;97015.75;;;-2.27;70.39
18201;BME280;9226;47.858;9.594;2023-02-10T04:10:30;97014.03;;;-2.30;70.65
18201;BME280;9226;47.858;9.594;2023-02-10T04:12:56;97022.69;;;-2.29;70.27
18201;BME280;9226;47.858;9.594;2023-02-10T04:15:21;97019.25;;;-2.36;70.89
18201;BME280;9226;47.858;9.594;2023-02-10T04:17:47;97014.06;;;-2.34;70.66
18201;BME280;9226;47.858;9.594;2023-02-10T04:20:13;97019.28;;;-2.38;71.50
18201;BME280;9226;47.858;9.594;2023-02-10T04:22:38;97022.75;;;-2.35;71.33
18201;BME280;9226;47.858;9.594;2023-02-10T04:25:04;97019.25;;;-2.31;70.77
18201;BME280;9226;47.858;9.594;2023-02-10T04:27:30;97027.91;;;-2.31;71.02
18201;BME280;9226;47.858;9.594;2023-02-10T04:29:55;97024.41;;;-2.25;69.98
18201;BME280;9226;47.858;9.594;2023-02-10T04:32:21;97024.41;;;-2.24;70.19
18201;BME280;9226;47.858;9.594;2023-02-10T04:34:46;97026.16;;;-2.24;69.95
18201;BME280;9226;47.858;9.594;2023-02-10T04:37:12;97022.66;;;-2.26;69.86
18201;BME280;9226;47.858;9.594;2023-02-10T04:39:37;97018.41;;;-2.35;70.32
18201;BME280;9226;47.858;9.594;2023-02-10T04:42:03;97021.03;;;-2.41;70.82
18201;BME280;9226;47.858;9.594;2023-02-10T04:44:28;97024.50;;;-2.47;71.26
18201;BME280;9226;47.858;9.594;2023-02-10T04:46:54;97026.25;;;-2.46;71.18
18201;BME280;9226;47.858;9.594;2023-02-10T04:49:19;97019.28;;;-2.42;70.80
18201;BME280;9226;47.858;9.594;2023-02-10T04:51:44;97013.22;;;-2.41;70.71
18201;BME280;9226;47.858;9.594;2023-02-10T04:54:10;97017.56;;;-2.42;70.78
18201;BME280;9226;47.858;9.594;2023-02-10T04:56:35;97018.41;;;-2.40;70.49
18201;BME280;9226;47.858;9.594;2023-02-10T04:59:01;97021.88;;;-2.38;70.53
18201;BME280;9226;47.858;9.594;2023-02-10T05:01:26;97023.63;;;-2.41;71.13
18201;BME280;9226;47.858;9.594;2023-02-10T05:03:51;97020.16;;;-2.37;70.36
18201;BME280;9226;47.858;9.594;2023-02-10T05:06:17;97019.28;;;-2.41;71.25
18201;BME280;9226;47.858;9.594;2023-02-10T05:08:43;97015.81;;;-2.40;71.23
18201;BME280;9226;47.858;9.594;2023-02-10T05:11:11;97020.16;;;-2.37;70.83
18201;BME280;9226;47.858;9.594;2023-02-10T05:13:37;97026.22;;;-2.37;71.09
18201;BME280;9226;47.858;9.594;2023-02-10T05:16:02;97015.81;;;-2.38;71.09
18201;BME280;9226;47.858;9.594;2023-02-10T05:18:32;97017.53;;;-2.35;70.64
18201;BME280;9226;47.858;9.594;2023-02-10T05:20:59;97024.44;;;-2.33;70.57
18201;BME280;9226;47.858;9.594;2023-02-10T05:23:25;97017.50;;;-2.29;70.35
18201;BME280;9226;47.858;9.594;2023-02-10T05:25:51;97019.22;;;-2.30;70.47
18201;BME280;9226;47.858;9.594;2023-02-10T05:28:17;97010.56;;;-2.27;70.24
18201;BME280;9226;47.858;9.594;2023-02-10T05:30:42;97014.03;;;-2.30;70.41
18201;BME280;9226;47.858;9.594;2023-02-10T05:33:08;97015.78;;;-2.30;70.30
18201;BME280;9226;47.858;9.594;2023-02-10T05:35:33;97012.28;;;-2.29;69.80
18201;BME280;9226;47.858;9.594;2023-02-10T05:37:58;97020.13;;;-2.32;69.76
18201;BME280;9226;47.858;9.594;2023-02-10T05:40:30;97031.41;;;-2.35;69.73
18201;BME280;9226;47.858;9.594;2023-02-10T05:42:55;97030.53;;;-2.34;69.68
18201;BME280;9226;47.858;9.594;2023-02-10T05:45:21;97043.53;;;-2.35;70.03
18201;BME280;9226;47.858;9.594;2023-02-10T05:47:47;97046.16;;;-2.42;70.21
18201;BME280;9226;47.858;9.594;2023-02-10T05:50:13;97049.69;;;-2.58;71.09
18201;BME280;9226;47.858;9.594;2023-02-10T05:52:39;97054.91;;;-2.66;71.18
18201;BME280;9226;47.858;9.594;2023-02-10T05:55:04;97063.59;;;-2.73;71.53
18201;BME280;9226;47.858;9.594;2023-02-10T05:57:30;97061.00;;;-2.70;70.41
18201;BME280;9226;47.858;9.594;2023-02-10T05:59:55;97063.59;;;-2.73;70.26
18201;BME280;9226;47.858;9.594;2023-02-10T06:02:21;97067.06;;;-2.74;69.95
18201;BME280;9226;47.858;9.594;2023-02-10T06:04:46;97063.59;;;-2.76;69.42
18201;BME280;9226;47.858;9.594;2023-02-10T06:07:11;97060.16;;;-2.78;69.32
18201;BME280;9226;47.858;9.594;2023-02-10T06:09:37;97069.66;;;-2.79;69.20
18201;BME280;9226;47.858;9.594;2023-02-10T06:12:04;97071.41;;;-2.78;69.29
18201;BME280;9226;47.858;9.594;2023-02-10T06:14:31;97069.66;;;-2.79;69.15
18201;BME280;9226;47.858;9.594;2023-02-10T06:16:56;97074.00;;;-2.81;68.92
18201;BME280;9226;47.858;9.594;2023-02-10T06:19:21;97079.22;;;-2.82;69.15
18201;BME280;9226;47.858;9.594;2023-02-10T06:21:47;97080.97;;;-2.86;68.92
18201;BME280;9226;47.858;9.594;2023-02-10T06:24:12;97079.22;;;-2.87;68.82
18201;BME280;9226;47.858;9.594;2023-02-10T06:26:38;97080.97;;;-2.89;68.72
18201;BME280;9226;47.858;9.594;2023-02-10T06:29:03;97080.97;;;-2.91;68.81
18201;BME280;9226;47.858;9.594;2023-02-10T06:31:28;97082.66;;;-2.91;68.82
18201;BME280;9226;47.858;9.594;2023-02-10T06:33:54;97086.16;;;-2.92;68.82
18201;BME280;9226;47.858;9.594;2023-02-10T06:36:19;97087.00;;;-2.93;68.69
18201;BME280;9226;47.858;9.594;2023-02-10T06:38:45;97090.50;;;-2.97;69.33
18201;BME280;9226;47.858;9.594;2023-02-10T06:41:11;97100.84;;;-2.94;68.99
18201;BME280;9226;47.858;9.594;2023-02-10T06:43:36;97099.16;;;-2.95;68.97
18201;BME280;9226;47.858;9.594;2023-02-10T06:46:01;97106.06;;;-2.94;68.92
18201;BME280;9226;47.858;9.594;2023-02-10T06:48:27;97112.13;;;-2.94;69.41
18201;BME280;9226;47.858;9.594;2023-02-10T06:50:52;97106.94;;;-2.95;70.08
18201;BME280;9226;47.858;9.594;2023-02-10T06:53:19;97125.13;;;-2.86;70.50
18201;BME280;9226;47.858;9.594;2023-02-10T06:55:44;97124.22;;;-2.77;70.63
18201;BME280;9226;47.858;9.594;2023-02-10T06:58:10;97115.53;;;-2.64;70.39
18201;BME280;9226;47.858;9.594;2023-02-10T07:00:36;97113.78;;;-2.49;70.71
18201;BME280;9226;47.858;9.594;2023-02-10T07:03:02;97111.97;;;-2.32;71.32
18201;BME280;9226;47.858;9.594;2023-02-10T07:05:27;97117.06;;;-2.07;70.85
18201;BME280;9226;47.858;9.594;2023-02-10T07:07:53;97105.66;;;-1.78;71.69
18201;BME280;9226;47.858;9.594;2023-02-10T07:10:19;97107.16;;;-1.39;71.32
18201;BME280;9226;47.858;9.594;2023-02-10T07:12:44;97106.81;;;-0.99;70.94
18201;BME280;9226;47.858;9.594;2023-02-10T07:15:12;97107.06;;;-0.38;69.96
18201;BME280;9226;47.858;9.594;2023-02-10T07:17:37;97102.94;;;0.14;68.93
18201;BME280;9226;47.858;9.594;2023-02-10T07:20:04;97104.50;;;0.86;67.37
18201;BME280;9226;47.858;9.594;2023-02-10T07:22:30;97105.91;;;1.57;65.55
18201;BME280;9226;47.858;9.594;2023-02-10T07:24:55;97104.25;;;2.39;65.07
18201;BME280;9226;47.858;9.594;2023-02-10T07:27:21;97106.88;;;3.13;61.70
18201;BME280;9226;47.858;9.594;2023-02-10T07:29:47;97113.41;;;3.32;58.76
18201;BME280;9226;47.858;9.594;2023-02-10T07:32:12;97118.56;;;4.31;57.86
18201;BME280;9226;47.858;9.594;2023-02-10T07:34:38;97111.47;;;4.63;54.69
18201;BME280;9226;47.858;9.594;2023-02-10T07:37:06;97114.72;;;5.26;52.88
18201;BME280;9226;47.858;9.594;2023-02-10T07:39:31;97117.06;;;5.86;51.72
18201;BME280;9226;47.858;9.594;2023-02-10T07:41:57;97119.63;;;6.38;49.78
18201;BME280;9226;47.858;9.594;2023-02-10T07:44:22;97117.81;;;6.62;48.29
18201;BME280;9226;47.858;9.594;2023-02-10T07:46:48;97112.31;;;7.75;48.76
18201;BME280;9226;47.858;9.594;2023-02-10T07:49:13;97113.00;;;8.39;47.07
18201;BME280;9226;47.858;9.594;2023-02-10T07:51:39;97112.47;;;8.71;46.19
18201;BME280;9226;47.858;9.594;2023-02-10T07:54:04;97124.81;;;9.08;45.15
18201;BME280;9226;47.858;9.594;2023-02-10T07:56:31;97126.41;;;9.30;45.07
18201;BME280;9226;47.858;9.594;2023-02-10T07:58:57;97129.56;;;10.08;43.13
18201;BME280;9226;47.858;9.594;2023-02-10T08:01:22;97127.50;;;10.13;41.80
18201;BME280;9226;47.858;9.594;2023-02-10T08:03:47;97125.88;;;10.93;40.14
18201;BME280;9226;47.858;9.594;2023-02-10T08:06:19;97130.06;;;11.29;40.70
18201;BME280;9226;47.858;9.594;2023-02-10T08:08:45;97134.75;;;11.86;39.65
18201;BME280;9226;47.858;9.594;2023-02-10T08:11:10;97130.63;;;11.81;38.25
18201;BME280;9226;47.858;9.594;2023-02-10T08:13:35;97131.72;;;12.37;36.95
18201;BME280;9226;47.858;9.594;2023-02-10T08:16:04;97131.84;;;12.92;36.10
18201;BME280;9226;47.858;9.594;2023-02-10T08:18:30;97127.75;;;13.42;35.36
18201;BME280;9226;47.858;9.594;2023-02-10T08:20:58;97124.53;;;14.17;35.37
18201;BME280;9226;47.858;9.594;2023-02-10T08:23:24;97131.03;;;14.90;35.64
18201;BME280;9226;47.858;9.594;2023-02-10T08:25:49;97138.72;;;15.56;33.92
18201;BME280;9226;47.858;9.594;2023-02-10T08:28:16;97128.34;;;16.00;34.07
18201;BME280;9226;47.858;9.594;2023-02-10T08:30:41;97137.13;;;15.78;32.75
18201;BME280;9226;47.858;9.594;2023-02-10T08:33:07;97133.75;;;16.22;33.13
18201;BME280;9226;47.858;9.594;2023-02-10T08:35:35;97139.06;;;16.58;32.23
18201;BME280;9226;47.858;9.594;2023-02-10T08:38:00;97142.69;;;16.57;32.43
18201;BME280;9226;47.858;9.594;2023-02-10T08:40:26;97132.19;;;16.31;31.87
18201;BME280;9226;47.858;9.594;2023-02-10T08:42:51;97130.66;;;16.62;31.54
18201;BME280;9226;47.858;9.594;2023-02-10T08:45:17;97130.13;;;16.46;31.18
18201;BME280;9226;47.858;9.594;2023-02-10T08:47:42;97127.91;;;16.28;30.74
18201;BME280;9226;47.858;9.594;2023-02-10T08:50:08;97126.13;;;16.74;30.49
18201;BME280;9226;47.858;9.594;2023-02-10T08:52:33;97126.34;;;16.37;29.50
18201;BME280;9226;47.858;9.594;2023-02-10T08:54:58;97134.34;;;15.55;28.89
18201;BME280;9226;47.858;9.594;2023-02-10T08:57:25;97123.44;;;16.29;29.99
18201;BME280;9226;47.858;9.594;2023-02-10T08:59:50;97133.91;;;15.97;29.83
18201;BME280;9226;47.858;9.594;2023-02-10T09:02:15;97130.91;;;16.01;29.11
18201;BME280;9226;47.858;9.594;2023-02-10T09:04:41;97133.03;;;16.32;29.32
18201;BME280;9226;47.858;9.594;2023-02-10T09:07:07;97135.41;;;16.59;29.10
18201;BME280;9226;47.858;9.594;2023-02-10T09:09:37;97139.03;;;16.35;27.49
18201;BME280;9226;47.858;9.594;2023-02-10T09:12:03;97150.28;;;16.86;26.83
18201;BME280;9226;47.858;9.594;2023-02-10T09:14:30;97139.28;;;16.77;27.13
18201;BME280;9226;47.858;9.594;2023-02-10T09:16:55;97144.41;;;17.26;26.18
18201;BME280;9226;47.858;9.594;2023-02-10T09:19:20;97143.09;;;17.64;26.13
18201;BME280;9226;47.858;9.594;2023-02-10T09:21:46;97140.19;;;17.99;25.36
18201;BME280;9226;47.858;9.594;2023-02-10T09:24:11;97140.84;;;17.48;25.00
18201;BME280;9226;47.858;9.594;2023-02-10T09:26:37;97140.22;;;17.88;24.96
18201;BME280;9226;47.858;9.594;2023-02-10T09:29:02;97136.19;;;18.36;25.62
18201;BME280;9226;47.858;9.594;2023-02-10T09:31:28;97148.72;;;18.68;25.06
18201;BME280;9226;47.858;9.594;2023-02-10T09:33:53;97145.78;;;18.80;24.41
18201;BME280;9226;47.858;9.594;2023-02-10T09:36:19;97143.72;;;18.84;24.80
18201;BME280;9226;47.858;9.594;2023-02-10T09:38:45;97135.50;;;18.86;24.38
18201;BME280;9226;47.858;9.594;2023-02-10T09:41:41;97137.94;;;17.40;23.70
18201;BME280;9226;47.858;9.594;2023-02-10T09:44:24;97136.59;;;17.34;24.69
18201;BME280;9226;47.858;9.594;2023-02-10T09:52:51;97141.00;;;16.67;25.69
18201;BME280;9226;47.858;9.594;2023-02-10T09:55:24;97146.13;;;16.59;27.05
18201;BME280;9226;47.858;9.594;2023-02-10T09:57:58;97143.44;;;17.38;27.04
18201;BME280;9226;47.858;9.594;2023-02-10T10:00:45;97147.22;;;16.68;26.58
18201;BME280;9226;47.858;9.594;2023-02-10T10:03:15;97150.72;;;17.47;27.01
18201;BME280;9226;47.858;9.594;2023-02-10T10:10:53;97138.25;;;17.58;26.91
18201;BME280;9226;47.858;9.594;2023-02-10T10:13:24;97135.44;;;17.59;26.88
18201;BME280;9226;47.858;9.594;2023-02-10T10:21:28;97143.00;;;17.98;27.45
18201;BME280;9226;47.858;9.594;2023-02-10T10:27:26;97131.00;;;17.26;27.50
18201;BME280;9226;47.858;9.594;2023-02-10T10:34:52;97128.00;;;17.51;27.21
18201;BME280;9226;47.858;9.594;2023-02-10T10:37:20;97127.53;;;17.46;27.30
18201;BME280;9226;47.858;9.594;2023-02-10T10:39:54;97120.47;;;17.45;27.87
18201;BME280;9226;47.858;9.594;2023-02-10T10:42:22;97120.66;;;17.97;27.34
18201;BME280;9226;47.858;9.594;2023-02-10T10:44:49;97123.16;;;17.45;26.96
18201;BME280;9226;47.858;9.594;2023-02-10T10:47:20;97119.31;;;17.27;26.88
18201;BME280;9226;47.858;9.594;2023-02-10T10:49:51;97119.31;;;17.59;27.97
18201;BME280;9226;47.858;9.594;2023-02-10T10:52:29;97113.56;;;17.20;28.09
18201;BME280;9226;47.858;9.594;2023-02-10T10:54:56;97107.81;;;17.36;27.77
18201;BME280;9226;47.858;9.594;2023-02-10T10:57:23;97104.22;;;17.14;27.85
18201;BME280;9226;47.858;9.594;2023-02-10T10:59:54;97102.25;;;17.16;28.20
18201;BME280;9226;47.858;9.594;2023-02-10T11:02:22;97097.47;;;17.20;28.02
18201;BME280;9226;47.858;9.594;2023-02-10T11:05:12;97089.84;;;17.48;28.15
18201;BME280;9226;47.858;9.594;2023-02-10T11:07:41;97092.41;;;16.94;28.06
18201;BME280;9226;47.858;9.594;2023-02-10T11:13:22;97083.66;;;16.92;28.06
18201;BME280;9226;47.858;9.594;2023-02-10T11:15:49;97078.88;;;16.96;28.28
18201;BME280;9226;47.858;9.594;2023-02-10T11:18:22;97082.84;;;17.24;28.45
18201;BME280;9226;47.858;9.594;2023-02-10T11:21:05;97083.06;;;17.32;28.10
18201;BME280;9226;47.858;9.594;2023-02-10T11:23:30;97089.34;;;16.42;28.08
18201;BME280;9226;47.858;9.594;2023-02-10T11:26:15;97083.38;;;16.73;28.12
18201;BME280;9226;47.858;9.594;2023-02-10T11:28:42;97081.53;;;17.07;28.23
18201;BME280;9226;47.858;9.594;2023-02-10T11:34:17;97074.75;;;16.58;28.26
18201;BME280;9226;47.858;9.594;2023-02-10T11:36:45;97068.41;;;16.70;28.09
18201;BME280;9226;47.858;9.594;2023-02-10T11:41:44;97074.47;;;16.27;28.79
18201;BME280;9226;47.858;9.594;2023-02-10T11:44:29;97063.59;;;15.95;28.95
18201;BME280;9226;47.858;9.594;2023-02-10T11:46:57;97054.97;;;16.02;29.29
18201;BME280;9226;47.858;9.594;2023-02-10T11:49:23;97053.38;;;15.64;29.60
18201;BME280;9226;47.858;9.594;2023-02-10T11:51:53;97047.47;;;15.48;29.90
18201;BME280;9226;47.858;9.594;2023-02-10T11:54:19;97042.09;;;15.12;29.70
18201;BME280;9226;47.858;9.594;2023-02-10T12:05:37;97038.34;;;13.64;31.43
18201;BME280;9226;47.858;9.594;2023-02-10T12:10:46;97036.44;;;14.17;31.38
18201;BME280;9226;47.858;9.594;2023-02-10T12:13:21;97039.50;;;13.60;32.23
18201;BME280;9226;47.858;9.594;2023-02-10T12:24:33;97027.25;;;13.83;32.22
18201;BME280;9226;47.858;9.594;2023-02-10T12:27:12;97021.59;;;13.87;31.95
18201;BME280;9226;47.858;9.594;2023-02-10T12:29:55;97015.19;;;13.77;32.01
18201;BME280;9226;47.858;9.594;2023-02-10T12:40:31;97023.72;;;14.08;32.04
18201;BME280;9226;47.858;9.594;2023-02-10T12:53:37;97015.22;;;12.97;32.95
18201;BME280;9226;47.858;9.594;2023-02-10T12:56:17;97017.44;;;11.76;33.69
18201;BME280;9226;47.858;9.594;2023-02-10T12:58:51;97014.50;;;12.24;33.64
18201;BME280;9226;47.858;9.594;2023-02-10T13:01:34;97012.13;;;12.20;34.00
18201;BME280;9226;47.858;9.594;2023-02-10T13:04:16;97016.91;;;12.00;34.38
18201;BME280;9226;47.858;9.594;2023-02-10T13:06:48;97009.72;;;11.72;34.76
18201;BME280;9226;47.858;9.594;2023-02-10T13:12:13;97014.16;;;11.71;34.98
18201;BME280;9226;47.858;9.594;2023-02-10T13:14:42;97012.66;;;11.67;34.87
18201;BME280;9226;47.858;9.594;2023-02-10T13:17:09;97006.91;;;11.45;34.79
18201;BME280;9226;47.858;9.594;2023-02-10T13:19:55;97009.13;;;11.22;34.66
18201;BME280;9226;47.858;9.594;2023-02-10T13:23:13;97006.56;;;10.90;35.19
18201;BME280;9226;47.858;9.594;2023-02-10T13:28:48;97003.16;;;10.56;36.50
18201;BME280;9226;47.858;9.594;2023-02-10T13:34:30;97012.50;;;9.98;37.21
18201;BME280;9226;47.858;9.594;2023-02-10T13:36:59;97003.47;;;9.51;38.26
18201;BME280;9226;47.858;9.594;2023-02-10T13:39:29;97005.19;;;9.52;37.93
18201;BME280;9226;47.858;9.594;2023-02-10T13:42:17;97001.38;;;9.40;38.42
18201;BME280;9226;47.858;9.594;2023-02-10T13:44:45;97003.34;;;9.19;38.46
18201;BME280;9226;47.858;9.594;2023-02-10T13:49:59;97008.44;;;8.87;38.99
18201;BME280;9226;47.858;9.594;2023-02-10T13:52:33;97003.75;;;8.75;39.85
18201;BME280;9226;47.858;9.594;2023-02-10T13:55:24;97013.44;;;8.76;39.99
18201;BME280;9226;47.858;9.594;2023-02-10T14:01:02;97004.94;;;8.50;40.61
18201;BME280;9226;47.858;9.594;2023-02-10T14:03:32;97004.72;;;8.55;40.17
18201;BME280;9226;47.858;9.594;2023-02-10T14:06:06;97007.06;;;8.61;40.16
18201;BME280;9226;47.858;9.594;2023-02-10T14:08:43;97004.78;;;8.54;40.76
18201;BME280;9226;47.858;9.594;2023-02-10T14:13:43;97008.38;;;8.33;40.72
18201;BME280;9226;47.858;9.594;2023-02-10T14:18:43;97007.34;;;8.36;40.36
18201;BME280;9226;47.858;9.594;2023-02-10T14:21:15;97014.38;;;8.37;40.75
18201;BME280;9226;47.858;9.594;2023-02-10T14:23:43;97007.91;;;8.43;40.55
18201;BME280;9226;47.858;9.594;2023-02-10T14:26:18;97003.78;;;8.37;40.77
18201;BME280;9226;47.858;9.594;2023-02-10T14:28:48;97003.44;;;8.26;41.09
18201;BME280;9226;47.858;9.594;2023-02-10T14:31:20;97010.63;;;8.22;41.38
18201;BME280;9226;47.858;9.594;2023-02-10T14:33:59;97001.22;;;8.17;41.34
18201;BME280;9226;47.858;9.594;2023-02-10T14:36:25;96996.06;;;8.13;41.49
18201;BME280;9226;47.858;9.594;2023-02-10T14:38:53;96992.72;;;7.91;41.86
18201;BME280;9226;47.858;9.594;2023-02-10T14:41:20;97002.94;;;7.99;41.65
18201;BME280;9226;47.858;9.594;2023-02-10T14:43:46;97003.72;;;8.01;41.60
18201;BME280;9226;47.858;9.594;2023-02-10T14:48:44;97004.75;;;7.77;41.68
18201;BME280;9226;47.858;9.594;2023-02-10T14:51:21;96998.06;;;7.70;41.84
18201;BME280;9226;47.858;9.594;2023-02-10T14:53:47;97006.81;;;7.71;41.80
18201;BME280;9226;47.858;9.594;2023-02-10T14:56:25;97007.75;;;7.70;42.16
18201;BME280;9226;47.858;9.594;2023-02-10T14:58:51;97010.72;;;7.62;42.22
18201;BME280;9226;47.858;9.594;2023-02-10T15:03:46;97007.56;;;7.54;42.17
18201;BME280;9226;47.858;9.594;2023-02-10T15:06:20;97005.94;;;7.51;42.07
18201;BME280;9226;47.858;9.594;2023-02-10T15:09:22;97006.13;;;7.47;42.52
18201;BME280;9226;47.858;9.594;2023-02-10T15:11:53;97010.72;;;7.41;42.37
18201;BME280;9226;47.858;9.594;2023-02-10T15:14:59;97021.72;;;7.12;43.40
18201;BME280;9226;47.858;9.594;2023-02-10T15:17:31;97018.53;;;7.24;42.67
18201;BME280;9226;47.858;9.594;2023-02-10T15:20:14;97011.41;;;7.26;42.40